createdAt,value
2022-12-18T00:00:00.472Z,13
2022-12-18T00:02:00.497Z,12
2022-12-18T00:03:00.546Z,14
2022-12-18T00:04:00.576Z,15
2022-12-18T00:05:00.465Z,18
2022-12-18T00:06:00.437Z,16
2022-12-18T00:07:00.436Z,17
2022-12-18T00:08:00.435Z,15
2022-12-18T00:09:00.445Z,16
2022-12-18T00:10:00.471Z,13
2022-12-18T00:11:00.471Z,14
2022-12-18T00:36:00.967Z,14
2022-12-18T00:37:00.873Z,17
2022-12-18T00:39:00.871Z,18
2022-12-18T00:41:00.872Z,19
2022-12-18T00:42:00.874Z,18
2022-12-18T00:43:00.874Z,17
2022-12-18T00:44:00.876Z,16
2022-12-18T00:45:00.872Z,16
2022-12-18T00:47:00.878Z,17
2022-12-18T00:48:00.873Z,18
2022-12-18T00:49:00.870Z,19
2022-12-18T00:50:00.874Z,18
2022-12-18T00:52:01.987Z,17
2022-12-18T00:54:01.006Z,18
2022-12-18T00:55:05.940Z,17
2022-12-18T00:56:00.877Z,16
2022-12-18T00:58:00.875Z,17
2022-12-18T00:59:00.880Z,15
2022-12-18T01:00:00.879Z,16
2022-12-18T01:01:00.922Z,17
2022-12-18T01:02:00.958Z,16
2022-12-18T01:04:00.940Z,17
2022-12-18T01:05:00.872Z,18
2022-12-18T01:06:00.879Z,17
2022-12-18T01:07:00.877Z,19
2022-12-18T01:08:00.903Z,20
2022-12-18T01:09:00.877Z,19
2022-12-18T01:10:00.893Z,18
2022-12-18T01:11:00.878Z,17
2022-12-18T01:12:00.877Z,15
2022-12-18T01:13:00.879Z,14
2022-12-18T01:15:00.880Z,15
2022-12-18T01:16:00.930Z,16
2022-12-18T01:17:00.881Z,17
2022-12-18T01:19:00.882Z,19
2022-12-18T01:20:00.879Z,17
2022-12-18T01:22:00.876Z,20
2022-12-18T01:24:00.971Z,19
2022-12-18T01:25:01.368Z,18
2022-12-18T01:26:00.883Z,19
2022-12-18T01:27:00.882Z,15
2022-12-18T01:28:00.884Z,13
2022-12-18T01:29:00.884Z,16
2022-12-18T01:30:00.886Z,16
2022-12-18T01:31:00.882Z,15
2022-12-18T01:32:00.930Z,17
2022-12-18T01:33:00.882Z,16
2022-12-18T01:34:00.883Z,14
2022-12-18T01:35:00.881Z,17
2022-12-18T01:36:00.883Z,18
2022-12-18T01:37:00.882Z,17
2022-12-18T01:38:00.880Z,18
2022-12-18T01:40:00.884Z,17
2022-12-18T01:41:00.886Z,14
2022-12-18T01:43:01.008Z,16
2022-12-18T01:44:00.887Z,17
2022-12-18T01:45:00.886Z,16
2022-12-18T01:46:00.940Z,19
2022-12-18T01:48:00.882Z,18
2022-12-18T01:49:00.880Z,17
2022-12-18T01:51:05.915Z,16
2022-12-18T01:52:00.908Z,15
2022-12-18T01:53:00.884Z,13
2022-12-18T01:55:00.883Z,12
2022-12-18T01:56:00.886Z,11
2022-12-18T01:57:00.913Z,13
2022-12-18T01:58:00.880Z,14
2022-12-18T01:59:00.891Z,16
2022-12-18T02:00:00.885Z,17
2022-12-18T02:01:00.963Z,18
2022-12-18T02:02:01.051Z,17
2022-12-18T02:04:01.016Z,16
2022-12-18T02:05:00.885Z,17
2022-12-18T02:06:00.889Z,18
2022-12-18T02:07:00.914Z,20
2022-12-18T02:09:00.886Z,19
2022-12-18T02:12:00.913Z,18
2022-12-18T02:15:01.075Z,18
2022-12-18T02:16:00.891Z,19
2022-12-18T02:17:00.980Z,16
2022-12-18T02:19:00.892Z,17
2022-12-18T02:20:00.893Z,16
2022-12-18T02:21:00.891Z,14
2022-12-18T02:22:00.936Z,17
2022-12-18T02:23:00.892Z,18
2022-12-18T02:24:00.893Z,16
2022-12-18T02:25:00.892Z,17
2022-12-18T02:27:00.935Z,16
2022-12-18T02:30:00.894Z,16
2022-12-18T02:31:01.097Z,17
2022-12-18T02:32:00.926Z,16
2022-12-18T02:34:01.022Z,17
2022-12-18T02:35:00.897Z,18
2022-12-18T02:38:00.921Z,19
2022-12-18T02:39:00.894Z,18
2022-12-18T02:40:00.894Z,17
2022-12-18T02:41:00.893Z,18
2022-12-18T02:43:00.930Z,16
2022-12-18T02:44:00.894Z,17
2022-12-18T02:45:00.895Z,18
2022-12-18T02:47:01.016Z,20
2022-12-18T02:48:00.933Z,21
2022-12-18T02:49:00.896Z,20
2022-12-18T02:50:00.898Z,19
2022-12-18T02:51:00.911Z,17
2022-12-18T02:52:00.895Z,15
2022-12-18T02:54:01.051Z,16
2022-12-18T02:55:00.895Z,15
2022-12-18T02:56:00.895Z,16
2022-12-18T02:57:00.895Z,17
2022-12-18T03:00:00.922Z,16
2022-12-18T03:01:00.948Z,17
2022-12-18T03:03:01.168Z,16
2022-12-18T03:05:00.924Z,18
2022-12-18T03:06:00.898Z,16
2022-12-18T03:07:00.895Z,19
2022-12-18T03:09:00.924Z,18
2022-12-18T03:12:00.895Z,15
2022-12-18T03:13:00.896Z,16
2022-12-18T03:14:00.929Z,17
2022-12-18T03:15:00.899Z,16
2022-12-18T03:16:00.899Z,18
2022-12-18T03:17:00.934Z,17
2022-12-18T03:21:01.015Z,16
2022-12-18T03:22:00.901Z,19
2022-12-18T03:24:01.055Z,18
2022-12-18T03:28:00.899Z,19
2022-12-18T03:29:00.931Z,20
2022-12-18T03:30:00.962Z,20
2022-12-18T03:32:00.898Z,19
2022-12-18T03:33:00.922Z,16
2022-12-18T03:34:00.936Z,17
2022-12-18T03:38:01.025Z,18
2022-12-18T03:39:05.929Z,17
2022-12-18T03:40:00.900Z,16
2022-12-18T03:41:00.902Z,18
2022-12-18T03:44:00.966Z,19
2022-12-18T03:45:00.923Z,20
2022-12-18T03:46:00.928Z,16
2022-12-18T03:47:00.899Z,17
2022-12-18T03:48:00.901Z,16
2022-12-18T03:49:00.901Z,15
2022-12-18T03:50:00.927Z,14
2022-12-18T03:51:00.901Z,16
2022-12-18T03:52:00.904Z,14
2022-12-18T03:53:00.903Z,15
2022-12-18T03:54:01.023Z,16
2022-12-18T03:56:00.930Z,15
2022-12-18T03:57:00.905Z,17
2022-12-18T03:58:00.904Z,16
2022-12-18T04:00:00.941Z,18
2022-12-18T04:01:00.903Z,19
2022-12-18T04:02:01.043Z,17
2022-12-18T04:03:00.907Z,18
2022-12-18T04:04:01.012Z,19
2022-12-18T04:05:00.903Z,17
2022-12-18T04:08:00.904Z,18
2022-12-18T04:10:01.023Z,21
2022-12-18T04:13:00.969Z,19
2022-12-18T04:14:03.634Z,17
2022-12-18T04:15:00.906Z,16
2022-12-18T04:16:00.964Z,17
2022-12-18T04:18:00.906Z,18
2022-12-18T04:21:00.907Z,17
2022-12-18T04:28:01.171Z,18
2022-12-18T04:29:00.909Z,19
2022-12-18T04:30:00.913Z,18
2022-12-18T04:31:00.946Z,19
2022-12-18T04:33:00.976Z,18
2022-12-18T04:34:00.910Z,17
2022-12-18T04:36:00.909Z,16
2022-12-18T04:37:00.913Z,18
2022-12-18T04:39:00.912Z,19
2022-12-18T04:41:00.913Z,17
2022-12-18T04:42:00.911Z,16
2022-12-18T04:44:01.161Z,15
2022-12-18T04:45:00.914Z,14
2022-12-18T04:46:00.951Z,15
2022-12-18T04:48:00.914Z,16
2022-12-18T04:49:00.913Z,15
2022-12-18T04:50:00.912Z,16
2022-12-18T04:51:00.915Z,15
2022-12-18T04:52:00.911Z,16
2022-12-18T04:53:00.912Z,17
2022-12-18T04:57:00.913Z,18
2022-12-18T04:59:00.918Z,19
2022-12-18T05:00:01.031Z,19
2022-12-18T05:01:00.913Z,20
2022-12-18T05:02:01.024Z,17
2022-12-18T05:04:01.049Z,16
2022-12-18T05:05:00.917Z,17
2022-12-18T05:07:00.914Z,18
2022-12-18T05:08:00.911Z,16
2022-12-18T05:09:00.916Z,18
2022-12-18T05:10:00.916Z,17
2022-12-18T05:11:00.913Z,15
2022-12-18T05:13:01.150Z,16
2022-12-18T05:15:00.914Z,16
2022-12-18T05:16:01.100Z,19
2022-12-18T05:17:01.388Z,17
2022-12-18T05:19:00.916Z,16
2022-12-18T05:20:00.915Z,17
2022-12-18T05:21:00.919Z,16
2022-12-18T05:22:00.915Z,17
2022-12-18T05:23:00.915Z,18
2022-12-18T05:24:00.914Z,19
2022-12-18T05:25:00.913Z,20
2022-12-18T05:26:00.915Z,21
2022-12-18T05:27:00.917Z,20
2022-12-18T05:30:05.759Z,17
2022-12-18T05:31:00.964Z,16
2022-12-18T05:33:01.161Z,14
2022-12-18T05:34:00.924Z,16
2022-12-18T05:35:00.915Z,18
2022-12-18T05:38:00.944Z,20
2022-12-18T05:39:00.917Z,17
2022-12-18T05:42:00.944Z,16
2022-12-18T05:45:00.983Z,15
2022-12-18T05:46:00.929Z,16
2022-12-18T05:48:00.946Z,18
2022-12-18T05:49:01.040Z,20
2022-12-18T05:50:00.921Z,21
2022-12-18T05:51:00.921Z,22
2022-12-18T05:52:00.947Z,21
2022-12-18T05:53:00.919Z,20
2022-12-18T05:54:00.921Z,18
2022-12-18T05:55:00.920Z,17
2022-12-18T05:56:00.920Z,15
2022-12-18T05:57:00.945Z,16
2022-12-18T05:58:00.917Z,15
2022-12-18T05:59:00.919Z,16
2022-12-18T06:00:00.921Z,15
2022-12-18T06:01:00.921Z,16
2022-12-18T06:02:01.041Z,17
2022-12-18T06:04:01.072Z,16
2022-12-18T06:05:01.039Z,18
2022-12-18T06:06:00.948Z,19
2022-12-18T06:07:00.919Z,18
2022-12-18T06:08:00.919Z,19
2022-12-18T06:09:00.922Z,18
2022-12-18T06:10:00.920Z,16
2022-12-18T06:11:00.948Z,17
2022-12-18T06:13:00.985Z,16
2022-12-18T06:15:00.923Z,19
2022-12-18T06:16:01.037Z,18
2022-12-18T06:17:00.922Z,19
2022-12-18T06:18:00.921Z,18
2022-12-18T06:21:01.079Z,19
2022-12-18T06:23:00.948Z,18
2022-12-18T06:24:00.926Z,17
2022-12-18T06:26:00.950Z,16
2022-12-18T06:27:00.923Z,15
2022-12-18T06:28:00.925Z,16
2022-12-18T06:30:00.924Z,16
2022-12-18T06:31:00.961Z,17
2022-12-18T06:33:00.991Z,15
2022-12-18T06:35:00.941Z,13
2022-12-18T06:38:06.908Z,16
2022-12-18T06:39:01.046Z,17
2022-12-18T06:40:00.929Z,16
2022-12-18T06:41:00.925Z,17
2022-12-18T06:42:00.928Z,18
2022-12-18T06:43:00.924Z,17
2022-12-18T06:44:00.923Z,18
2022-12-18T06:45:00.924Z,19
2022-12-18T06:46:01.109Z,18
2022-12-18T06:47:00.921Z,17
2022-12-18T06:49:00.925Z,16
2022-12-18T06:50:00.926Z,15
2022-12-18T06:51:00.925Z,14
2022-12-18T06:52:00.927Z,13
2022-12-18T06:53:00.927Z,14
2022-12-18T06:54:00.929Z,16
2022-12-18T06:56:03.908Z,17
2022-12-18T06:57:00.932Z,18
2022-12-18T06:58:00.931Z,17
2022-12-18T06:59:00.931Z,15
2022-12-18T07:00:00.930Z,16
2022-12-18T07:02:02.065Z,17
2022-12-18T07:04:00.993Z,18
2022-12-18T07:05:02.014Z,19
2022-12-18T07:06:00.931Z,18
2022-12-18T07:08:00.997Z,17
2022-12-18T07:10:00.933Z,15
2022-12-18T07:11:00.935Z,17
2022-12-18T07:12:01.058Z,16
2022-12-18T07:14:00.936Z,15
2022-12-18T07:15:00.937Z,14
2022-12-18T07:17:00.993Z,15
2022-12-18T07:18:00.935Z,16
2022-12-18T07:19:00.935Z,18
2022-12-18T07:20:00.936Z,20
2022-12-18T07:23:01.001Z,19
2022-12-18T07:24:00.941Z,18
2022-12-18T07:25:00.936Z,16
2022-12-18T07:27:00.936Z,14
2022-12-18T07:28:01.061Z,15
2022-12-18T07:30:00.938Z,16
2022-12-18T07:33:01.000Z,17
2022-12-18T07:34:00.935Z,18
2022-12-18T07:35:01.006Z,19
2022-12-18T07:36:00.943Z,18
2022-12-18T07:37:00.939Z,19
2022-12-18T07:38:00.938Z,17
2022-12-18T07:39:00.940Z,15
2022-12-18T07:40:00.940Z,14
2022-12-18T07:41:00.935Z,16
2022-12-18T07:42:00.942Z,15
2022-12-18T07:43:00.944Z,16
2022-12-18T07:44:01.053Z,17
2022-12-18T07:45:00.942Z,17
2022-12-18T07:46:00.990Z,15
2022-12-18T07:49:00.943Z,16
2022-12-18T07:50:00.939Z,17
2022-12-18T07:52:00.944Z,18
2022-12-18T07:53:00.939Z,17
2022-12-18T07:54:00.940Z,16
2022-12-18T07:55:00.949Z,17
2022-12-18T07:56:25.863Z,18
2022-12-18T07:57:00.928Z,17
2022-12-18T08:00:01.065Z,17
2022-12-18T08:01:01.015Z,16
2022-12-18T08:03:01.178Z,18
2022-12-18T08:04:00.948Z,19
2022-12-18T08:05:00.948Z,17
2022-12-18T08:07:00.950Z,16
2022-12-18T08:08:02.103Z,14
2022-12-18T08:10:00.958Z,17
2022-12-18T08:11:00.946Z,16
2022-12-18T08:12:00.948Z,15
2022-12-18T08:13:04.789Z,18
2022-12-18T08:14:00.949Z,17
2022-12-18T08:15:00.949Z,16
2022-12-18T08:16:01.074Z,19
2022-12-18T08:17:01.021Z,18
2022-12-18T08:19:00.949Z,19
2022-12-18T08:20:00.956Z,18
2022-12-18T08:21:01.011Z,17
2022-12-18T08:22:01.022Z,19
2022-12-18T08:23:00.950Z,17
2022-12-18T08:25:00.950Z,19
2022-12-18T08:26:00.993Z,20
2022-12-18T08:27:30.399Z,19
2022-12-18T08:28:00.928Z,18
2022-12-18T08:29:00.948Z,20
2022-12-18T08:30:00.952Z,20
2022-12-18T08:31:01.025Z,17
2022-12-18T08:32:01.085Z,18
2022-12-18T08:33:00.953Z,17
2022-12-18T08:34:00.952Z,16
2022-12-18T08:35:00.949Z,15
2022-12-18T08:37:01.081Z,14
2022-12-18T08:38:00.951Z,15
2022-12-18T08:40:00.952Z,16
2022-12-18T08:43:01.018Z,15
2022-12-18T08:45:00.954Z,16
2022-12-18T08:46:01.015Z,17
2022-12-18T08:47:00.955Z,18
2022-12-18T08:48:01.075Z,17
2022-12-18T08:50:00.965Z,16
2022-12-18T08:53:01.086Z,17
2022-12-18T08:54:01.021Z,18
2022-12-18T08:55:01.021Z,19
2022-12-18T08:56:01.096Z,18
2022-12-18T08:57:01.020Z,17
2022-12-18T09:00:00.967Z,16
2022-12-18T09:02:01.293Z,17
2022-12-18T09:03:01.081Z,16
2022-12-18T09:05:01.076Z,17
2022-12-18T09:06:01.007Z,18
2022-12-18T09:08:01.025Z,19
2022-12-18T09:09:01.035Z,18
2022-12-18T09:10:01.037Z,17
2022-12-18T09:11:01.128Z,16
2022-12-18T09:13:02.116Z,15
2022-12-18T09:14:01.049Z,17
2022-12-18T09:15:01.022Z,18
2022-12-18T09:16:01.097Z,19
2022-12-18T09:17:01.043Z,20
2022-12-18T09:18:01.025Z,19
2022-12-18T09:19:01.082Z,20
2022-12-18T09:20:01.026Z,19
2022-12-18T09:21:01.117Z,18
2022-12-18T09:23:01.090Z,17
2022-12-18T09:25:01.024Z,16
2022-12-18T09:26:01.110Z,17
2022-12-18T09:27:01.024Z,16
2022-12-18T09:30:00.983Z,16
2022-12-18T09:31:01.034Z,14
2022-12-18T09:32:00.959Z,15
2022-12-18T09:35:01.023Z,16
2022-12-18T09:36:01.005Z,17
2022-12-18T09:37:01.081Z,18
2022-12-18T09:44:00.962Z,17
2022-12-18T09:45:01.015Z,17
2022-12-18T09:46:00.978Z,18
2022-12-18T09:49:00.962Z,17
2022-12-18T09:53:01.148Z,16
2022-12-18T09:54:00.963Z,17
2022-12-18T09:57:00.963Z,20
2022-12-18T09:58:00.973Z,19
2022-12-18T09:59:00.967Z,20
2022-12-18T10:00:01.029Z,20
2022-12-18T10:01:00.969Z,19
2022-12-18T10:02:01.188Z,16
2022-12-18T10:04:01.161Z,15
2022-12-18T10:08:01.003Z,17
2022-12-18T10:09:01.087Z,18
2022-12-18T10:10:00.968Z,17
2022-12-18T10:11:00.966Z,16
2022-12-18T10:13:04.445Z,15
2022-12-18T10:14:01.068Z,14
2022-12-18T10:15:01.033Z,16
2022-12-18T10:16:01.081Z,17
2022-12-18T10:17:01.033Z,16
2022-12-18T10:18:01.090Z,19
2022-12-18T10:19:00.967Z,21
2022-12-18T10:20:00.968Z,20
2022-12-18T10:23:01.009Z,17
2022-12-18T10:24:00.969Z,16
2022-12-18T10:28:01.126Z,17
2022-12-18T10:29:05.438Z,16
2022-12-18T10:30:00.970Z,15
2022-12-18T10:32:00.970Z,14
2022-12-18T10:33:01.015Z,16
2022-12-18T10:35:01.329Z,17
2022-12-18T10:36:00.972Z,18
2022-12-18T10:37:00.972Z,17
2022-12-18T10:38:01.006Z,16
2022-12-18T10:39:00.973Z,17
2022-12-18T10:40:00.976Z,18
2022-12-18T10:41:00.977Z,17
2022-12-18T10:44:01.182Z,15
2022-12-18T10:45:01.038Z,15
2022-12-18T10:46:01.020Z,16
2022-12-18T10:48:00.973Z,19
2022-12-18T10:50:01.000Z,20
2022-12-18T10:51:10.640Z,21
2022-12-18T10:52:00.973Z,20
2022-12-18T10:53:00.972Z,18
2022-12-18T10:54:00.973Z,19
2022-12-18T10:55:00.999Z,18
2022-12-18T10:56:00.969Z,16
2022-12-18T10:57:00.975Z,18
2022-12-18T10:58:00.999Z,16
2022-12-18T10:59:00.974Z,14
2022-12-18T11:00:01.138Z,13
2022-12-18T11:01:00.974Z,15
2022-12-18T11:02:01.057Z,16
2022-12-18T11:03:01.130Z,18
2022-12-18T11:05:01.014Z,17
2022-12-18T11:06:00.974Z,15
2022-12-18T11:07:00.972Z,13
2022-12-18T11:08:00.982Z,12
2022-12-18T11:09:00.973Z,11
2022-12-18T11:10:01.008Z,13
2022-12-18T11:11:00.973Z,15
2022-12-18T11:13:01.037Z,16
2022-12-18T11:14:00.976Z,18
2022-12-18T11:15:01.019Z,17
2022-12-18T11:16:01.142Z,18
2022-12-18T11:17:30.667Z,20
2022-12-18T11:19:00.957Z,19
2022-12-18T11:20:01.018Z,18
2022-12-18T11:21:00.974Z,17
2022-12-18T11:22:01.055Z,15
2022-12-18T11:24:01.117Z,14
2022-12-18T11:46:00.792Z,15
2022-12-18T11:48:00.601Z,14
2022-12-18T11:49:00.599Z,15
2022-12-18T11:52:00.600Z,16
2022-12-18T11:53:05.543Z,18
2022-12-18T11:56:00.598Z,19
2022-12-18T11:57:00.603Z,17
2022-12-18T11:58:00.600Z,16
2022-12-18T11:59:00.601Z,15
2022-12-18T12:00:00.619Z,17
2022-12-18T12:01:00.608Z,15
2022-12-18T12:03:00.892Z,16
2022-12-18T12:04:00.636Z,17
2022-12-18T12:05:00.601Z,16
2022-12-18T12:06:00.600Z,18
2022-12-18T12:07:03.186Z,19
2022-12-18T12:10:00.602Z,18
2022-12-18T12:11:00.645Z,17
2022-12-18T12:15:00.607Z,17
2022-12-18T12:18:00.603Z,18
2022-12-18T12:19:00.722Z,17
2022-12-18T12:21:00.631Z,19
2022-12-18T12:22:00.604Z,20
2022-12-18T12:25:00.731Z,21
2022-12-18T12:26:00.650Z,19
2022-12-18T12:27:00.603Z,20
2022-12-18T12:29:00.758Z,19
2022-12-18T12:30:00.606Z,17
2022-12-18T12:31:00.639Z,18
2022-12-18T12:32:00.656Z,15
2022-12-18T12:33:00.604Z,13
2022-12-18T12:34:00.605Z,14
2022-12-18T12:35:03.667Z,15
2022-12-18T12:37:00.605Z,17
2022-12-18T12:39:00.599Z,15
2022-12-18T12:41:03.037Z,16
2022-12-18T12:42:00.638Z,15
2022-12-18T12:43:00.604Z,17
2022-12-18T12:44:00.604Z,18
2022-12-18T12:45:00.625Z,17
2022-12-18T12:46:00.660Z,16
2022-12-18T12:47:00.669Z,17
2022-12-18T12:48:00.604Z,16
2022-12-18T12:49:00.607Z,15
2022-12-18T12:51:00.758Z,16
2022-12-18T12:52:00.606Z,17
2022-12-18T12:53:00.608Z,18
2022-12-18T12:55:00.608Z,19
2022-12-18T12:56:00.653Z,18
2022-12-18T12:57:00.609Z,16
2022-12-18T12:58:00.610Z,15
2022-12-18T13:00:00.609Z,15
2022-12-18T13:03:00.735Z,16
2022-12-18T13:04:00.609Z,15
2022-12-18T13:05:00.685Z,16
2022-12-18T13:07:00.722Z,15
2022-12-18T13:10:00.668Z,14
2022-12-18T13:12:00.746Z,16
2022-12-18T13:14:00.670Z,18
2022-12-18T13:15:00.602Z,18
2022-12-18T13:17:00.601Z,17
2022-12-18T13:18:00.601Z,18
2022-12-18T13:21:03.113Z,19
2022-12-18T13:23:00.800Z,17
2022-12-18T13:24:00.608Z,16
2022-12-18T13:25:00.621Z,17
2022-12-18T13:27:00.666Z,18
2022-12-18T13:28:00.677Z,19
2022-12-18T13:30:00.691Z,18
2022-12-18T13:31:01.822Z,17
2022-12-18T13:32:00.672Z,15
2022-12-18T13:33:00.674Z,17
2022-12-18T13:35:00.600Z,18
2022-12-18T13:36:00.662Z,17
2022-12-18T13:37:00.602Z,20
2022-12-18T13:38:00.600Z,19
2022-12-18T13:39:01.805Z,18
2022-12-18T13:41:00.634Z,19
2022-12-18T13:42:00.669Z,18
2022-12-18T13:45:00.664Z,19
2022-12-18T13:47:01.697Z,17
2022-12-18T13:49:00.678Z,16
2022-12-18T13:51:00.603Z,15
2022-12-18T13:52:00.665Z,16
2022-12-18T13:53:00.604Z,18
2022-12-18T13:54:00.604Z,19
2022-12-18T13:55:00.727Z,18
2022-12-18T13:56:00.604Z,17
2022-12-18T13:58:00.640Z,16
2022-12-18T13:59:00.669Z,14
2022-12-18T14:00:00.601Z,15
2022-12-18T14:01:00.666Z,16
2022-12-18T14:03:00.916Z,14
2022-12-18T14:05:00.605Z,15
2022-12-18T14:08:00.606Z,16
2022-12-18T14:10:33.784Z,14
2022-12-18T14:11:00.704Z,13
2022-12-18T14:12:00.604Z,14
2022-12-18T14:15:00.670Z,14
2022-12-18T14:16:00.894Z,15
2022-12-18T14:18:00.608Z,17
2022-12-18T14:20:00.612Z,18
2022-12-18T14:21:00.677Z,16
2022-12-18T14:22:00.606Z,14
2022-12-18T14:23:00.608Z,11
2022-12-18T14:25:00.674Z,13
2022-12-18T14:26:05.295Z,15
2022-12-18T14:27:00.730Z,16
2022-12-18T14:28:00.673Z,17
2022-12-18T14:29:00.605Z,18
2022-12-18T14:30:00.615Z,18
2022-12-18T14:32:00.676Z,19
2022-12-18T14:33:00.608Z,20
2022-12-18T14:34:00.610Z,19
2022-12-18T14:35:00.614Z,18
2022-12-18T14:39:00.616Z,19
2022-12-18T14:41:00.613Z,18
2022-12-18T14:43:00.794Z,17
2022-12-18T14:44:00.612Z,15
2022-12-18T14:45:13.736Z,16
2022-12-18T14:47:00.743Z,15
2022-12-18T14:48:00.700Z,16
2022-12-18T14:49:00.607Z,15
2022-12-18T14:50:00.614Z,14
2022-12-18T14:51:00.644Z,15
2022-12-18T14:53:00.675Z,16
2022-12-18T14:54:00.614Z,17
2022-12-18T14:55:00.614Z,18
2022-12-18T14:56:00.616Z,17
2022-12-18T14:58:00.616Z,15
2022-12-18T14:59:00.800Z,14
2022-12-18T15:00:00.701Z,13
2022-12-18T15:01:00.739Z,12
2022-12-18T15:03:00.794Z,13
2022-12-18T15:04:00.610Z,14
2022-12-18T15:06:01.640Z,15
2022-12-18T15:09:00.613Z,13
2022-12-18T15:11:00.613Z,14
2022-12-18T15:14:00.745Z,16
2022-12-18T15:15:06.606Z,18
2022-12-18T15:17:00.733Z,17
2022-12-18T15:19:00.616Z,18
2022-12-18T15:22:06.029Z,20
2022-12-18T15:23:00.629Z,18
2022-12-18T15:27:00.622Z,17
2022-12-18T15:28:00.616Z,18
2022-12-18T15:30:00.618Z,19
2022-12-18T15:31:00.696Z,20
2022-12-18T15:32:00.619Z,21
2022-12-18T15:34:00.812Z,19
2022-12-18T15:35:00.640Z,18
2022-12-18T15:36:00.620Z,17
2022-12-18T15:37:00.625Z,16
2022-12-18T15:39:04.968Z,17
2022-12-18T15:40:00.634Z,18
2022-12-18T15:43:00.748Z,16
2022-12-18T15:45:00.625Z,16
2022-12-18T15:46:00.680Z,15
2022-12-18T15:47:00.657Z,14
2022-12-18T15:48:00.622Z,16
2022-12-18T15:49:02.458Z,17
2022-12-18T15:50:00.751Z,16
2022-12-18T15:51:00.621Z,17
2022-12-18T15:52:00.674Z,18
2022-12-18T15:53:00.619Z,17
2022-12-18T15:54:00.684Z,16
2022-12-18T15:57:00.666Z,15
2022-12-18T16:00:00.718Z,16
2022-12-18T16:01:00.664Z,15
2022-12-18T16:02:00.784Z,16
2022-12-18T16:03:00.898Z,17
2022-12-18T16:05:00.624Z,18
2022-12-18T16:09:00.750Z,17
2022-12-18T16:10:02.644Z,16
2022-12-18T16:11:00.623Z,18
2022-12-18T16:12:00.626Z,17
2022-12-18T16:14:00.687Z,18
2022-12-18T16:15:00.628Z,17
2022-12-18T16:16:00.698Z,18
2022-12-18T16:20:00.722Z,20
2022-12-18T16:21:00.627Z,17
2022-12-18T16:22:00.689Z,16
2022-12-18T16:23:00.657Z,17
2022-12-18T16:24:00.692Z,16
2022-12-18T16:25:00.745Z,14
2022-12-18T16:26:00.631Z,15
2022-12-18T16:27:00.633Z,16
2022-12-18T16:29:00.632Z,15
2022-12-18T16:30:00.688Z,16
2022-12-18T16:31:00.670Z,17
2022-12-18T16:32:00.639Z,18
2022-12-18T16:33:00.633Z,17
2022-12-18T16:34:00.677Z,18
2022-12-18T16:35:00.633Z,17
2022-12-18T16:36:00.642Z,15
2022-12-18T16:37:05.092Z,14
2022-12-18T16:39:00.673Z,13
2022-12-18T16:40:00.700Z,14
2022-12-18T16:41:00.758Z,15
2022-12-18T16:44:00.667Z,17
2022-12-18T16:45:00.639Z,16
2022-12-18T16:47:01.663Z,17
2022-12-18T16:48:00.638Z,16
2022-12-18T16:49:00.780Z,17
2022-12-18T16:50:00.638Z,19
2022-12-18T16:52:00.638Z,20
2022-12-18T16:53:00.639Z,21
2022-12-18T16:54:01.359Z,20
2022-12-18T16:55:00.706Z,19
2022-12-18T16:56:00.639Z,17
2022-12-18T16:57:00.762Z,19
2022-12-18T16:59:00.675Z,18
2022-12-18T17:00:04.977Z,20
2022-12-18T17:01:00.647Z,21
2022-12-18T17:02:00.770Z,18
2022-12-18T17:03:00.894Z,16
2022-12-18T17:04:00.753Z,17
2022-12-18T17:05:00.657Z,15
2022-12-18T17:08:00.642Z,17
2022-12-18T17:09:00.696Z,16
2022-12-18T17:13:00.827Z,15
2022-12-18T17:15:00.709Z,14
2022-12-18T17:16:00.688Z,15
2022-12-18T17:17:20.179Z,14
2022-12-18T17:18:00.629Z,13
2022-12-18T17:19:00.649Z,14
2022-12-18T17:20:00.671Z,16
2022-12-18T17:21:00.646Z,15
2022-12-18T17:22:00.653Z,16
2022-12-18T17:23:00.647Z,15
2022-12-18T17:26:00.649Z,16
2022-12-18T17:27:00.650Z,17
2022-12-18T17:28:00.647Z,18
2022-12-18T17:29:00.769Z,19
2022-12-18T17:30:05.679Z,18
2022-12-18T17:31:00.714Z,17
2022-12-18T17:32:00.691Z,16
2022-12-18T17:33:00.650Z,18
2022-12-18T17:35:05.563Z,17
2022-12-18T17:36:00.649Z,18
2022-12-18T17:37:00.647Z,20
2022-12-18T17:38:00.652Z,18
2022-12-18T17:41:00.644Z,17
2022-12-18T17:42:00.644Z,15
2022-12-18T17:43:00.644Z,16
2022-12-18T17:44:00.646Z,18
2022-12-18T17:45:06.656Z,17
2022-12-18T17:46:00.772Z,19
2022-12-18T17:48:00.657Z,18
2022-12-18T17:49:00.646Z,17
2022-12-18T17:53:00.771Z,15
2022-12-18T17:54:00.644Z,14
2022-12-18T17:55:00.673Z,15
2022-12-18T17:56:00.650Z,12
2022-12-18T17:57:01.053Z,13
2022-12-18T17:58:00.642Z,15
2022-12-18T17:59:00.640Z,18
2022-12-18T18:00:05.669Z,17
2022-12-18T18:05:00.853Z,18
2022-12-18T18:07:00.646Z,17
2022-12-18T18:08:01.667Z,16
2022-12-18T18:09:00.670Z,14
2022-12-18T18:10:00.646Z,13
2022-12-18T18:11:00.770Z,12
2022-12-18T18:12:00.703Z,13
2022-12-18T18:13:00.645Z,15
2022-12-18T18:15:00.668Z,17
2022-12-18T18:16:00.671Z,18
2022-12-18T18:17:04.610Z,19
2022-12-18T18:18:00.649Z,20
2022-12-18T18:20:00.669Z,19
2022-12-18T18:22:00.760Z,16
2022-12-18T18:23:00.651Z,15
2022-12-18T18:24:00.642Z,16
2022-12-18T18:25:00.698Z,17
2022-12-18T18:28:00.649Z,16
2022-12-18T18:29:00.648Z,17
2022-12-18T18:30:00.789Z,16
2022-12-18T18:32:00.780Z,17
2022-12-18T18:33:00.806Z,16
2022-12-18T18:34:00.640Z,14
2022-12-18T18:37:00.747Z,15
2022-12-18T18:38:00.826Z,16
2022-12-18T18:39:00.646Z,18
2022-12-18T18:43:00.945Z,17
2022-12-18T18:44:00.688Z,18
2022-12-18T18:45:00.794Z,17
2022-12-18T18:47:00.731Z,15
2022-12-18T18:48:00.720Z,17
2022-12-18T18:49:00.807Z,15
2022-12-18T18:50:00.721Z,16
2022-12-18T18:51:00.706Z,15
2022-12-18T18:52:00.716Z,17
2022-12-18T18:53:00.783Z,16
2022-12-18T18:58:01.021Z,17
2022-12-18T18:59:00.765Z,18
2022-12-18T19:00:00.650Z,18
2022-12-18T19:01:00.679Z,19
2022-12-18T19:03:01.070Z,17
2022-12-18T19:06:00.645Z,15
2022-12-18T19:07:00.722Z,14
2022-12-18T19:12:00.647Z,15
2022-12-18T19:13:00.644Z,16
2022-12-18T19:14:00.902Z,15
2022-12-18T19:15:00.711Z,15
2022-12-18T19:16:00.782Z,18
2022-12-18T19:17:00.710Z,17
2022-12-18T19:18:00.709Z,16
2022-12-18T19:21:00.644Z,15
2022-12-18T19:22:00.669Z,16
2022-12-18T19:24:00.876Z,17
2022-12-18T19:25:00.760Z,16
2022-12-18T19:26:16.872Z,17
2022-12-18T19:27:00.685Z,16
2022-12-18T19:28:00.653Z,17
2022-12-18T19:29:00.680Z,16
2022-12-18T19:30:00.844Z,16
2022-12-18T19:32:00.711Z,17
2022-12-18T19:33:09.703Z,16
2022-12-18T19:34:00.626Z,15
2022-12-18T19:36:00.681Z,16
2022-12-18T19:39:00.650Z,17
2022-12-18T19:40:00.719Z,16
2022-12-18T19:41:00.724Z,15
2022-12-18T19:42:00.655Z,14
2022-12-18T19:43:00.735Z,15
2022-12-18T19:45:00.677Z,15
2022-12-18T19:46:00.861Z,14
2022-12-18T19:47:00.759Z,15
2022-12-18T19:49:00.716Z,16
2022-12-18T19:51:00.650Z,18
2022-12-18T19:53:00.785Z,19
2022-12-18T19:54:01.781Z,16
2022-12-18T19:55:00.762Z,17
2022-12-18T19:56:00.820Z,16
2022-12-18T19:58:00.664Z,14
2022-12-18T19:59:00.777Z,15
2022-12-18T20:00:00.847Z,15
2022-12-18T20:01:00.687Z,14
2022-12-18T20:02:00.977Z,15
2022-12-18T20:04:01.022Z,16
2022-12-18T20:05:00.700Z,17
2022-12-18T20:07:00.706Z,18
2022-12-18T20:10:05.520Z,17
2022-12-18T20:11:00.666Z,18
2022-12-18T20:15:00.769Z,19
2022-12-18T20:17:00.741Z,16
2022-12-18T20:20:00.866Z,15
2022-12-18T20:22:00.664Z,16
2022-12-18T20:25:00.768Z,15
2022-12-18T20:28:00.669Z,14
2022-12-18T20:30:00.703Z,15
2022-12-18T20:33:00.733Z,14
2022-12-18T20:34:02.741Z,15
2022-12-18T20:35:00.696Z,14
2022-12-18T20:36:00.791Z,17
2022-12-18T20:38:00.665Z,18
2022-12-18T20:39:01.732Z,19
2022-12-18T20:40:00.705Z,18
2022-12-18T20:41:00.669Z,17
2022-12-18T20:42:00.670Z,18
2022-12-18T20:43:00.670Z,17
2022-12-18T20:45:00.707Z,16
2022-12-18T20:47:00.671Z,14
2022-12-18T20:48:00.671Z,15
2022-12-18T20:50:05.924Z,16
2022-12-18T20:51:00.793Z,18
2022-12-18T20:52:00.791Z,17
2022-12-18T20:53:00.672Z,16
2022-12-18T20:56:00.677Z,14
2022-12-18T20:57:00.673Z,15
2022-12-18T20:58:00.673Z,16
2022-12-18T20:59:00.673Z,17
2022-12-18T21:00:00.673Z,16
2022-12-18T21:02:00.850Z,17
2022-12-18T21:03:00.832Z,16
2022-12-18T21:04:00.673Z,17
2022-12-18T21:05:00.672Z,18